sensor_id;sensor_type;location;lat;lon;timestamp;temperature;humidity
15156;DHT22;7678;50.058;8.306;2022-10-17T00:01:11;13.00;99.90
15156;DHT22;7678;50.058;8.306;2022-10-17T00:03:40;13.00;99.90
15156;DHT22;7678;50.058;8.306;2022-10-17T00:06:10;13.00;99.90
15156;DHT22;7678;50.058;8.306;2022-10-17T00:08:41;13.00;99.90
15156;DHT22;7678;50.058;8.306;2022-10-17T00:11:15;13.10;99.90
15156;DHT22;7678;50.058;8.306;2022-10-17T00:13:44;13.10;99.90
15156;DHT22;7678;50.058;8.306;2022-10-17T00:16:14;13.10;99.90
15156;DHT22;7678;50.058;8.306;2022-10-17T00:18:45;13.00;99.90
15156;DHT22;7678;50.058;8.306;2022-10-17T00:21:17;12.90;99.90
15156;DHT22;7678;50.058;8.306;2022-10-17T00:23:46;12.90;99.90
15156;DHT22;7678;50.058;8.306;2022-10-17T00:26:15;12.90;99.90
15156;DHT22;7678;50.058;8.306;2022-10-17T00:28:45;12.80;99.90
15156;DHT22;7678;50.058;8.306;2022-10-17T00:31:16;12.80;99.90
15156;DHT22;7678;50.058;8.306;2022-10-17T00:33:47;12.70;99.90
15156;DHT22;7678;50.058;8.306;2022-10-17T00:36:17;12.70;99.90
15156;DHT22;7678;50.058;8.306;2022-10-17T00:38:48;12.80;99.90
15156;DHT22;7678;50.058;8.306;2022-10-17T00:41:19;12.80;99.90
15156;DHT22;7678;50.058;8.306;2022-10-17T00:43:50;12.70;99.90
15156;DHT22;7678;50.058;8.306;2022-10-17T00:46:20;12.70;99.90
15156;DHT22;7678;50.058;8.306;2022-10-17T00:48:51;12.70;99.90
15156;DHT22;7678;50.058;8.306;2022-10-17T00:51:25;12.70;99.90
15156;DHT22;7678;50.058;8.306;2022-10-17T00:53:56;12.60;99.90
15156;DHT22;7678;50.058;8.306;2022-10-17T00:56:24;12.70;99.90
15156;DHT22;7678;50.058;8.306;2022-10-17T00:58:54;12.70;99.90
15156;DHT22;7678;50.058;8.306;2022-10-17T01:01:23;12.70;99.90
15156;DHT22;7678;50.058;8.306;2022-10-17T01:03:51;12.70;99.90
15156;DHT22;7678;50.058;8.306;2022-10-17T01:06:19;12.60;99.90
15156;DHT22;7678;50.058;8.306;2022-10-17T01:08:47;12.60;99.90
15156;DHT22;7678;50.058;8.306;2022-10-17T01:11:30;12.60;99.90
15156;DHT22;7678;50.058;8.306;2022-10-17T01:14:04;12.50;99.90
15156;DHT22;7678;50.058;8.306;2022-10-17T01:16:38;12.50;99.90
15156;DHT22;7678;50.058;8.306;2022-10-17T01:19:29;12.50;99.90
15156;DHT22;7678;50.058;8.306;2022-10-17T01:22:04;12.50;99.90
15156;DHT22;7678;50.058;8.306;2022-10-17T01:24:54;12.50;99.90
15156;DHT22;7678;50.058;8.306;2022-10-17T01:27:59;12.40;99.90
15156;DHT22;7678;50.058;8.306;2022-10-17T01:30:59;12.50;99.90
15156;DHT22;7678;50.058;8.306;2022-10-17T01:33:35;12.40;99.90
15156;DHT22;7678;50.058;8.306;2022-10-17T01:36:10;12.40;99.90
15156;DHT22;7678;50.058;8.306;2022-10-17T01:38:45;12.40;99.90
15156;DHT22;7678;50.058;8.306;2022-10-17T01:41:19;12.40;99.90
15156;DHT22;7678;50.058;8.306;2022-10-17T01:43:56;12.40;99.90
15156;DHT22;7678;50.058;8.306;2022-10-17T01:46:30;12.40;99.90
15156;DHT22;7678;50.058;8.306;2022-10-17T01:49:02;12.40;99.90
15156;DHT22;7678;50.058;8.306;2022-10-17T01:51:34;12.40;99.90
15156;DHT22;7678;50.058;8.306;2022-10-17T01:54:08;12.30;99.90
15156;DHT22;7678;50.058;8.306;2022-10-17T01:56:39;12.30;99.90
15156;DHT22;7678;50.058;8.306;2022-10-17T01:59:11;12.40;99.90
15156;DHT22;7678;50.058;8.306;2022-10-17T02:01:44;12.30;99.90
15156;DHT22;7678;50.058;8.306;2022-10-17T02:04:13;12.30;99.90
15156;DHT22;7678;50.058;8.306;2022-10-17T02:06:42;12.30;99.90
15156;DHT22;7678;50.058;8.306;2022-10-17T02:09:18;12.20;99.90
15156;DHT22;7678;50.058;8.306;2022-10-17T02:11:56;12.30;99.90
15156;DHT22;7678;50.058;8.306;2022-10-17T02:14:34;12.20;99.90
15156;DHT22;7678;50.058;8.306;2022-10-17T02:17:13;12.20;99.90
15156;DHT22;7678;50.058;8.306;2022-10-17T02:19:51;12.20;99.90
15156;DHT22;7678;50.058;8.306;2022-10-17T02:22:30;12.10;99.90
15156;DHT22;7678;50.058;8.306;2022-10-17T02:25:06;12.20;99.90
15156;DHT22;7678;50.058;8.306;2022-10-17T02:27:42;12.20;99.90
15156;DHT22;7678;50.058;8.306;2022-10-17T02:30:17;12.20;99.90
15156;DHT22;7678;50.058;8.306;2022-10-17T02:32:54;12.10;99.90
15156;DHT22;7678;50.058;8.306;2022-10-17T02:35:29;12.20;99.90
15156;DHT22;7678;50.058;8.306;2022-10-17T02:37:59;12.20;99.90
15156;DHT22;7678;50.058;8.306;2022-10-17T02:40:29;12.20;99.90
15156;DHT22;7678;50.058;8.306;2022-10-17T02:42:59;12.10;99.90
15156;DHT22;7678;50.058;8.306;2022-10-17T02:45:29;12.10;99.90
15156;DHT22;7678;50.058;8.306;2022-10-17T02:48:05;12.20;99.90
15156;DHT22;7678;50.058;8.306;2022-10-17T02:50:44;12.10;99.90
15156;DHT22;7678;50.058;8.306;2022-10-17T02:53:19;12.10;99.90
15156;DHT22;7678;50.058;8.306;2022-10-17T02:55:54;12.10;99.90
15156;DHT22;7678;50.058;8.306;2022-10-17T02:58:27;12.20;99.90
15156;DHT22;7678;50.058;8.306;2022-10-17T03:00:59;12.20;99.90
15156;DHT22;7678;50.058;8.306;2022-10-17T03:03:31;12.20;99.90
15156;DHT22;7678;50.058;8.306;2022-10-17T03:05:59;12.20;99.90
15156;DHT22;7678;50.058;8.306;2022-10-17T03:08:27;12.20;99.90
15156;DHT22;7678;50.058;8.306;2022-10-17T03:10:55;12.20;99.90
15156;DHT22;7678;50.058;8.306;2022-10-17T03:13:23;12.10;99.90
15156;DHT22;7678;50.058;8.306;2022-10-17T03:15:51;12.10;99.90
15156;DHT22;7678;50.058;8.306;2022-10-17T03:18:19;12.00;99.90
15156;DHT22;7678;50.058;8.306;2022-10-17T03:20:49;12.10;99.90
15156;DHT22;7678;50.058;8.306;2022-10-17T03:23:17;12.10;99.90
15156;DHT22;7678;50.058;8.306;2022-10-17T03:25:45;12.00;99.90
15156;DHT22;7678;50.058;8.306;2022-10-17T03:28:13;12.00;99.90
15156;DHT22;7678;50.058;8.306;2022-10-17T03:30:41;12.00;99.90
15156;DHT22;7678;50.058;8.306;2022-10-17T03:33:09;12.10;99.90
15156;DHT22;7678;50.058;8.306;2022-10-17T03:35:38;12.10;99.90
15156;DHT22;7678;50.058;8.306;2022-10-17T03:38:07;12.00;99.90
15156;DHT22;7678;50.058;8.306;2022-10-17T03:40:36;12.00;99.90
15156;DHT22;7678;50.058;8.306;2022-10-17T03:43:04;12.10;99.90
15156;DHT22;7678;50.058;8.306;2022-10-17T03:45:32;12.10;99.90
15156;DHT22;7678;50.058;8.306;2022-10-17T03:48:00;12.10;99.90
15156;DHT22;7678;50.058;8.306;2022-10-17T03:50:28;12.10;99.90
15156;DHT22;7678;50.058;8.306;2022-10-17T03:52:56;12.30;99.90
15156;DHT22;7678;50.058;8.306;2022-10-17T03:55:26;12.20;99.90
15156;DHT22;7678;50.058;8.306;2022-10-17T03:57:54;12.20;99.90
15156;DHT22;7678;50.058;8.306;2022-10-17T04:00:22;12.10;99.90
15156;DHT22;7678;50.058;8.306;2022-10-17T04:02:50;12.30;99.90
15156;DHT22;7678;50.058;8.306;2022-10-17T04:05:18;12.20;99.90
15156;DHT22;7678;50.058;8.306;2022-10-17T04:07:46;12.30;99.90
15156;DHT22;7678;50.058;8.306;2022-10-17T04:10:16;12.40;99.90
15156;DHT22;7678;50.058;8.306;2022-10-17T04:12:45;12.40;99.90
15156;DHT22;7678;50.058;8.306;2022-10-17T04:15:13;12.30;99.90
15156;DHT22;7678;50.058;8.306;2022-10-17T04:17:41;12.40;99.90
15156;DHT22;7678;50.058;8.306;2022-10-17T04:20:09;12.40;99.90
15156;DHT22;7678;50.058;8.306;2022-10-17T04:22:37;12.40;99.90
15156;DHT22;7678;50.058;8.306;2022-10-17T04:25:06;12.30;99.90
15156;DHT22;7678;50.058;8.306;2022-10-17T04:27:34;12.30;99.90
15156;DHT22;7678;50.058;8.306;2022-10-17T04:30:04;12.30;99.90
15156;DHT22;7678;50.058;8.306;2022-10-17T04:32:35;12.30;99.90
15156;DHT22;7678;50.058;8.306;2022-10-17T04:35:04;12.30;99.90
15156;DHT22;7678;50.058;8.306;2022-10-17T04:37:32;12.20;99.90
15156;DHT22;7678;50.058;8.306;2022-10-17T04:40:00;12.30;99.90
15156;DHT22;7678;50.058;8.306;2022-10-17T04:42:29;12.30;99.90
15156;DHT22;7678;50.058;8.306;2022-10-17T04:44:58;12.20;99.90
15156;DHT22;7678;50.058;8.306;2022-10-17T04:47:27;12.20;99.90
15156;DHT22;7678;50.058;8.306;2022-10-17T04:49:55;12.20;99.90
15156;DHT22;7678;50.058;8.306;2022-10-17T04:52:23;12.20;99.90
15156;DHT22;7678;50.058;8.306;2022-10-17T04:54:52;12.20;99.90
15156;DHT22;7678;50.058;8.306;2022-10-17T04:57:20;12.20;99.90
15156;DHT22;7678;50.058;8.306;2022-10-17T04:59:49;12.10;99.90
15156;DHT22;7678;50.058;8.306;2022-10-17T05:02:17;12.10;99.90
15156;DHT22;7678;50.058;8.306;2022-10-17T05:04:47;12.10;99.90
15156;DHT22;7678;50.058;8.306;2022-10-17T05:07:16;12.10;99.90
15156;DHT22;7678;50.058;8.306;2022-10-17T05:09:45;12.00;99.90
15156;DHT22;7678;50.058;8.306;2022-10-17T05:12:13;12.00;99.90
15156;DHT22;7678;50.058;8.306;2022-10-17T05:14:41;12.00;99.90
15156;DHT22;7678;50.058;8.306;2022-10-17T05:17:10;11.90;99.90
15156;DHT22;7678;50.058;8.306;2022-10-17T05:19:38;11.90;99.90
15156;DHT22;7678;50.058;8.306;2022-10-17T05:22:08;11.80;99.90
15156;DHT22;7678;50.058;8.306;2022-10-17T05:24:37;11.80;99.90
15156;DHT22;7678;50.058;8.306;2022-10-17T05:27:05;11.80;99.90
15156;DHT22;7678;50.058;8.306;2022-10-17T05:29:33;11.80;99.90
15156;DHT22;7678;50.058;8.306;2022-10-17T05:32:02;12.00;99.90
15156;DHT22;7678;50.058;8.306;2022-10-17T05:34:32;12.00;99.90
15156;DHT22;7678;50.058;8.306;2022-10-17T05:37:02;11.90;99.90
15156;DHT22;7678;50.058;8.306;2022-10-17T05:39:32;11.90;99.90
15156;DHT22;7678;50.058;8.306;2022-10-17T05:42:01;11.80;99.90
15156;DHT22;7678;50.058;8.306;2022-10-17T05:44:29;11.80;99.90
15156;DHT22;7678;50.058;8.306;2022-10-17T05:46:57;11.70;99.90
15156;DHT22;7678;50.058;8.306;2022-10-17T05:49:25;11.70;99.90
15156;DHT22;7678;50.058;8.306;2022-10-17T05:52:14;11.80;99.90
15156;DHT22;7678;50.058;8.306;2022-10-17T05:54:44;11.80;99.90
15156;DHT22;7678;50.058;8.306;2022-10-17T05:57:12;11.80;99.90
15156;DHT22;7678;50.058;8.306;2022-10-17T05:59:40;11.80;99.90
15156;DHT22;7678;50.058;8.306;2022-10-17T06:02:08;11.80;99.90
15156;DHT22;7678;50.058;8.306;2022-10-17T06:04:38;11.90;99.90
15156;DHT22;7678;50.058;8.306;2022-10-17T06:07:11;11.90;99.90
15156;DHT22;7678;50.058;8.306;2022-10-17T06:09:39;11.90;99.90
15156;DHT22;7678;50.058;8.306;2022-10-17T06:12:09;11.80;99.90
15156;DHT22;7678;50.058;8.306;2022-10-17T06:14:37;11.90;99.90
15156;DHT22;7678;50.058;8.306;2022-10-17T06:17:05;11.90;99.90
15156;DHT22;7678;50.058;8.306;2022-10-17T06:19:40;11.90;99.90
15156;DHT22;7678;50.058;8.306;2022-10-17T06:22:10;12.00;99.90
15156;DHT22;7678;50.058;8.306;2022-10-17T06:24:38;12.00;99.90
15156;DHT22;7678;50.058;8.306;2022-10-17T06:27:09;12.10;99.90
15156;DHT22;7678;50.058;8.306;2022-10-17T06:29:38;12.10;99.90
15156;DHT22;7678;50.058;8.306;2022-10-17T06:32:07;12.10;99.90
15156;DHT22;7678;50.058;8.306;2022-10-17T06:34:40;12.10;99.90
15156;DHT22;7678;50.058;8.306;2022-10-17T06:37:09;12.10;99.90
15156;DHT22;7678;50.058;8.306;2022-10-17T06:39:37;12.10;99.90
15156;DHT22;7678;50.058;8.306;2022-10-17T06:42:05;12.20;99.90
15156;DHT22;7678;50.058;8.306;2022-10-17T06:44:35;12.20;99.90
15156;DHT22;7678;50.058;8.306;2022-10-17T06:47:05;12.40;99.90
15156;DHT22;7678;50.058;8.306;2022-10-17T06:49:33;12.50;99.90
15156;DHT22;7678;50.058;8.306;2022-10-17T06:52:02;12.70;99.90
15156;DHT22;7678;50.058;8.306;2022-10-17T06:54:30;12.70;99.90
15156;DHT22;7678;50.058;8.306;2022-10-17T06:56:59;12.70;99.90
15156;DHT22;7678;50.058;8.306;2022-10-17T06:59:27;12.80;99.90
15156;DHT22;7678;50.058;8.306;2022-10-17T07:01:57;12.90;99.90
15156;DHT22;7678;50.058;8.306;2022-10-17T07:04:28;12.90;99.90
15156;DHT22;7678;50.058;8.306;2022-10-17T07:06:56;13.10;99.90
15156;DHT22;7678;50.058;8.306;2022-10-17T07:09:29;13.20;99.90
15156;DHT22;7678;50.058;8.306;2022-10-17T07:11:58;13.30;99.90
15156;DHT22;7678;50.058;8.306;2022-10-17T07:14:26;13.40;99.90
15156;DHT22;7678;50.058;8.306;2022-10-17T07:16:59;13.50;99.90
15156;DHT22;7678;50.058;8.306;2022-10-17T07:19:27;13.70;99.90
15156;DHT22;7678;50.058;8.306;2022-10-17T07:21:55;13.80;99.90
15156;DHT22;7678;50.058;8.306;2022-10-17T07:24:24;13.80;99.90
15156;DHT22;7678;50.058;8.306;2022-10-17T07:26:52;14.00;99.90
15156;DHT22;7678;50.058;8.306;2022-10-17T07:29:20;14.10;99.90
15156;DHT22;7678;50.058;8.306;2022-10-17T07:31:48;14.10;99.90
15156;DHT22;7678;50.058;8.306;2022-10-17T07:34:19;14.20;99.90
15156;DHT22;7678;50.058;8.306;2022-10-17T07:36:47;14.30;99.90
15156;DHT22;7678;50.058;8.306;2022-10-17T07:39:15;14.40;99.90
15156;DHT22;7678;50.058;8.306;2022-10-17T07:41:44;14.50;99.90
15156;DHT22;7678;50.058;8.306;2022-10-17T07:44:13;14.50;99.90
15156;DHT22;7678;50.058;8.306;2022-10-17T07:46:41;14.60;99.90
15156;DHT22;7678;50.058;8.306;2022-10-17T07:49:09;14.70;99.90
15156;DHT22;7678;50.058;8.306;2022-10-17T07:51:39;14.80;99.90
15156;DHT22;7678;50.058;8.306;2022-10-17T07:54:07;14.80;99.90
15156;DHT22;7678;50.058;8.306;2022-10-17T07:56:35;15.00;99.90
15156;DHT22;7678;50.058;8.306;2022-10-17T07:59:03;15.10;99.90
15156;DHT22;7678;50.058;8.306;2022-10-17T08:01:35;15.10;99.90
15156;DHT22;7678;50.058;8.306;2022-10-17T08:04:04;15.10;99.90
15156;DHT22;7678;50.058;8.306;2022-10-17T08:06:32;15.20;99.90
15156;DHT22;7678;50.058;8.306;2022-10-17T08:09:02;15.10;99.90
15156;DHT22;7678;50.058;8.306;2022-10-17T08:11:30;15.30;99.90
15156;DHT22;7678;50.058;8.306;2022-10-17T08:13:58;15.40;99.90
15156;DHT22;7678;50.058;8.306;2022-10-17T08:16:26;15.40;99.90
15156;DHT22;7678;50.058;8.306;2022-10-17T08:18:54;15.50;99.90
15156;DHT22;7678;50.058;8.306;2022-10-17T08:21:22;15.60;99.90
15156;DHT22;7678;50.058;8.306;2022-10-17T08:23:51;15.70;99.90
15156;DHT22;7678;50.058;8.306;2022-10-17T08:26:20;15.80;99.90
15156;DHT22;7678;50.058;8.306;2022-10-17T08:28:49;15.90;99.90
15156;DHT22;7678;50.058;8.306;2022-10-17T08:31:18;15.90;99.90
15156;DHT22;7678;50.058;8.306;2022-10-17T08:33:47;15.90;99.90
15156;DHT22;7678;50.058;8.306;2022-10-17T08:36:16;16.10;99.90
15156;DHT22;7678;50.058;8.306;2022-10-17T08:38:45;16.10;99.90
15156;DHT22;7678;50.058;8.306;2022-10-17T08:41:35;16.10;99.90
15156;DHT22;7678;50.058;8.306;2022-10-17T08:44:13;16.20;99.90
15156;DHT22;7678;50.058;8.306;2022-10-17T08:46:47;16.20;99.90
15156;DHT22;7678;50.058;8.306;2022-10-17T08:49:36;16.20;99.90
15156;DHT22;7678;50.058;8.306;2022-10-17T08:52:10;16.40;99.90
15156;DHT22;7678;50.058;8.306;2022-10-17T08:54:43;16.50;99.90
15156;DHT22;7678;50.058;8.306;2022-10-17T08:57:15;16.50;99.90
15156;DHT22;7678;50.058;8.306;2022-10-17T08:59:44;16.60;99.90
15156;DHT22;7678;50.058;8.306;2022-10-17T09:05:26;16.60;99.90
15156;DHT22;7678;50.058;8.306;2022-10-17T09:08:04;16.80;99.90
15156;DHT22;7678;50.058;8.306;2022-10-17T09:10:45;17.00;99.90
15156;DHT22;7678;50.058;8.306;2022-10-17T09:13:28;17.10;99.90
15156;DHT22;7678;50.058;8.306;2022-10-17T09:16:21;17.10;99.90
15156;DHT22;7678;50.058;8.306;2022-10-17T09:19:00;17.40;99.90
15156;DHT22;7678;50.058;8.306;2022-10-17T09:21:38;17.30;99.90
15156;DHT22;7678;50.058;8.306;2022-10-17T09:24:12;17.40;99.90
15156;DHT22;7678;50.058;8.306;2022-10-17T09:26:43;17.40;99.90
15156;DHT22;7678;50.058;8.306;2022-10-17T09:29:19;17.50;99.90
15156;DHT22;7678;50.058;8.306;2022-10-17T09:31:53;17.40;99.90
15156;DHT22;7678;50.058;8.306;2022-10-17T09:34:30;17.30;99.90
15156;DHT22;7678;50.058;8.306;2022-10-17T09:36:59;17.60;99.90
15156;DHT22;7678;50.058;8.306;2022-10-17T09:39:28;17.60;99.90
15156;DHT22;7678;50.058;8.306;2022-10-17T09:41:59;17.60;99.90
15156;DHT22;7678;50.058;8.306;2022-10-17T09:44:31;17.80;99.90
15156;DHT22;7678;50.058;8.306;2022-10-17T09:47:17;17.80;99.90
15156;DHT22;7678;50.058;8.306;2022-10-17T09:49:49;17.70;99.90
15156;DHT22;7678;50.058;8.306;2022-10-17T09:52:19;17.70;99.90
15156;DHT22;7678;50.058;8.306;2022-10-17T09:54:48;17.90;99.90
15156;DHT22;7678;50.058;8.306;2022-10-17T09:57:18;17.90;99.90
15156;DHT22;7678;50.058;8.306;2022-10-17T09:59:58;18.00;99.90
15156;DHT22;7678;50.058;8.306;2022-10-17T10:02:28;18.00;99.90
15156;DHT22;7678;50.058;8.306;2022-10-17T10:04:59;18.10;99.90
15156;DHT22;7678;50.058;8.306;2022-10-17T10:07:33;18.10;99.90
15156;DHT22;7678;50.058;8.306;2022-10-17T10:10:04;18.30;99.90
15156;DHT22;7678;50.058;8.306;2022-10-17T10:12:35;18.20;99.90
15156;DHT22;7678;50.058;8.306;2022-10-17T10:15:29;18.30;99.90
15156;DHT22;7678;50.058;8.306;2022-10-17T10:17:57;18.40;99.90
15156;DHT22;7678;50.058;8.306;2022-10-17T10:20:31;18.30;99.90
15156;DHT22;7678;50.058;8.306;2022-10-17T10:23:05;18.40;99.90
15156;DHT22;7678;50.058;8.306;2022-10-17T10:25:34;18.40;99.90
15156;DHT22;7678;50.058;8.306;2022-10-17T10:28:09;18.40;99.90
15156;DHT22;7678;50.058;8.306;2022-10-17T10:30:39;18.30;99.90
15156;DHT22;7678;50.058;8.306;2022-10-17T10:33:10;18.40;99.90
15156;DHT22;7678;50.058;8.306;2022-10-17T10:35:38;18.40;99.90
15156;DHT22;7678;50.058;8.306;2022-10-17T10:38:09;18.60;99.90
15156;DHT22;7678;50.058;8.306;2022-10-17T10:40:44;18.80;99.90
15156;DHT22;7678;50.058;8.306;2022-10-17T10:43:21;18.90;99.90
15156;DHT22;7678;50.058;8.306;2022-10-17T10:45:52;18.90;99.90
15156;DHT22;7678;50.058;8.306;2022-10-17T10:48:22;19.00;99.90
15156;DHT22;7678;50.058;8.306;2022-10-17T10:50:53;18.80;99.90
15156;DHT22;7678;50.058;8.306;2022-10-17T10:53:40;18.80;99.90
15156;DHT22;7678;50.058;8.306;2022-10-17T10:56:13;19.10;99.90
15156;DHT22;7678;50.058;8.306;2022-10-17T10:58:50;19.30;99.90
15156;DHT22;7678;50.058;8.306;2022-10-17T11:01:26;19.40;99.90
15156;DHT22;7678;50.058;8.306;2022-10-17T11:04:13;19.40;99.90
15156;DHT22;7678;50.058;8.306;2022-10-17T11:06:45;19.40;99.90
15156;DHT22;7678;50.058;8.306;2022-10-17T11:09:23;19.30;99.90
15156;DHT22;7678;50.058;8.306;2022-10-17T11:12:02;19.40;99.90
15156;DHT22;7678;50.058;8.306;2022-10-17T11:14:41;19.30;99.90
15156;DHT22;7678;50.058;8.306;2022-10-17T11:17:19;19.40;99.90
15156;DHT22;7678;50.058;8.306;2022-10-17T11:19:55;19.40;99.90
15156;DHT22;7678;50.058;8.306;2022-10-17T11:22:28;19.60;99.90
15156;DHT22;7678;50.058;8.306;2022-10-17T11:25:03;19.80;99.90
15156;DHT22;7678;50.058;8.306;2022-10-17T11:27:33;19.90;99.90
15156;DHT22;7678;50.058;8.306;2022-10-17T11:30:01;19.90;99.90
15156;DHT22;7678;50.058;8.306;2022-10-17T11:32:37;20.10;99.90
15156;DHT22;7678;50.058;8.306;2022-10-17T11:35:16;20.20;99.90
15156;DHT22;7678;50.058;8.306;2022-10-17T11:37:49;20.40;99.90
15156;DHT22;7678;50.058;8.306;2022-10-17T11:40:21;20.50;99.90
15156;DHT22;7678;50.058;8.306;2022-10-17T11:42:57;20.60;99.90
15156;DHT22;7678;50.058;8.306;2022-10-17T11:45:28;20.70;99.90
15156;DHT22;7678;50.058;8.306;2022-10-17T11:48:02;20.90;99.90
15156;DHT22;7678;50.058;8.306;2022-10-17T11:50:33;21.00;99.90
15156;DHT22;7678;50.058;8.306;2022-10-17T11:53:24;21.00;99.90
15156;DHT22;7678;50.058;8.306;2022-10-17T11:55:57;21.00;99.90
15156;DHT22;7678;50.058;8.306;2022-10-17T11:58:34;21.10;99.90
15156;DHT22;7678;50.058;8.306;2022-10-17T12:01:12;21.10;99.90
15156;DHT22;7678;50.058;8.306;2022-10-17T12:04:03;21.10;99.90
15156;DHT22;7678;50.058;8.306;2022-10-17T12:06:45;21.20;99.90
15156;DHT22;7678;50.058;8.306;2022-10-17T12:09:21;21.50;99.90
15156;DHT22;7678;50.058;8.306;2022-10-17T12:11:53;21.50;99.90
15156;DHT22;7678;50.058;8.306;2022-10-17T12:14:41;21.50;99.90
15156;DHT22;7678;50.058;8.306;2022-10-17T12:17:30;21.90;99.90
15156;DHT22;7678;50.058;8.306;2022-10-17T12:20:33;22.10;99.90
15156;DHT22;7678;50.058;8.306;2022-10-17T12:23:24;21.90;99.90
15156;DHT22;7678;50.058;8.306;2022-10-17T12:25:54;21.90;99.90
15156;DHT22;7678;50.058;8.306;2022-10-17T12:28:30;21.90;99.90
15156;DHT22;7678;50.058;8.306;2022-10-17T12:31:00;21.80;99.90
15156;DHT22;7678;50.058;8.306;2022-10-17T12:33:33;21.70;99.90
15156;DHT22;7678;50.058;8.306;2022-10-17T12:39:42;22.00;99.90
15156;DHT22;7678;50.058;8.306;2022-10-17T12:42:31;22.10;99.90
15156;DHT22;7678;50.058;8.306;2022-10-17T12:44:59;22.20;99.90
15156;DHT22;7678;50.058;8.306;2022-10-17T12:47:35;22.10;99.90
15156;DHT22;7678;50.058;8.306;2022-10-17T12:53:06;21.80;99.90
15156;DHT22;7678;50.058;8.306;2022-10-17T12:55:46;21.90;99.90
15156;DHT22;7678;50.058;8.306;2022-10-17T12:58:17;21.80;99.90
15156;DHT22;7678;50.058;8.306;2022-10-17T13:00:49;21.80;99.90
15156;DHT22;7678;50.058;8.306;2022-10-17T13:03:42;22.00;99.90
15156;DHT22;7678;50.058;8.306;2022-10-17T13:06:14;22.30;99.90
15156;DHT22;7678;50.058;8.306;2022-10-17T13:08:46;22.30;99.90
15156;DHT22;7678;50.058;8.306;2022-10-17T13:11:24;22.10;99.90
15156;DHT22;7678;50.058;8.306;2022-10-17T13:13:56;22.20;99.90
15156;DHT22;7678;50.058;8.306;2022-10-17T13:16:28;22.20;99.90
15156;DHT22;7678;50.058;8.306;2022-10-17T13:18:57;22.30;99.90
15156;DHT22;7678;50.058;8.306;2022-10-17T13:21:26;22.40;99.90
15156;DHT22;7678;50.058;8.306;2022-10-17T13:23:54;22.40;99.90
15156;DHT22;7678;50.058;8.306;2022-10-17T13:26:25;22.30;99.90
15156;DHT22;7678;50.058;8.306;2022-10-17T13:29:01;22.40;99.90
15156;DHT22;7678;50.058;8.306;2022-10-17T13:31:31;22.40;99.90
15156;DHT22;7678;50.058;8.306;2022-10-17T13:34:01;22.30;99.90
15156;DHT22;7678;50.058;8.306;2022-10-17T13:36:31;22.30;99.90
15156;DHT22;7678;50.058;8.306;2022-10-17T13:39:05;22.30;99.90
15156;DHT22;7678;50.058;8.306;2022-10-17T13:41:40;22.20;99.90
15156;DHT22;7678;50.058;8.306;2022-10-17T13:44:12;22.20;99.90
15156;DHT22;7678;50.058;8.306;2022-10-17T13:46:40;22.20;99.90
15156;DHT22;7678;50.058;8.306;2022-10-17T13:49:15;22.20;99.90
15156;DHT22;7678;50.058;8.306;2022-10-17T13:51:46;22.10;99.90
15156;DHT22;7678;50.058;8.306;2022-10-17T13:54:35;22.10;99.90
15156;DHT22;7678;50.058;8.306;2022-10-17T13:57:17;22.20;99.90
15156;DHT22;7678;50.058;8.306;2022-10-17T13:59:50;22.20;99.90
15156;DHT22;7678;50.058;8.306;2022-10-17T14:02:20;22.10;99.90
15156;DHT22;7678;50.058;8.306;2022-10-17T14:05:01;22.10;99.90
15156;DHT22;7678;50.058;8.306;2022-10-17T14:07:50;22.10;99.90
15156;DHT22;7678;50.058;8.306;2022-10-17T14:10:40;22.10;99.90
15156;DHT22;7678;50.058;8.306;2022-10-17T14:13:21;22.20;99.90
15156;DHT22;7678;50.058;8.306;2022-10-17T14:15:50;22.10;99.90
15156;DHT22;7678;50.058;8.306;2022-10-17T14:18:22;22.00;99.90
15156;DHT22;7678;50.058;8.306;2022-10-17T14:20:52;21.90;99.90
15156;DHT22;7678;50.058;8.306;2022-10-17T14:23:41;21.90;99.90
15156;DHT22;7678;50.058;8.306;2022-10-17T14:26:15;22.00;99.90
15156;DHT22;7678;50.058;8.306;2022-10-17T14:28:47;22.10;99.90
15156;DHT22;7678;50.058;8.306;2022-10-17T14:31:24;22.10;99.90
15156;DHT22;7678;50.058;8.306;2022-10-17T14:33:55;22.20;99.90
15156;DHT22;7678;50.058;8.306;2022-10-17T14:36:36;22.40;99.90
15156;DHT22;7678;50.058;8.306;2022-10-17T14:42:38;22.60;99.90
15156;DHT22;7678;50.058;8.306;2022-10-17T14:45:12;22.70;99.90
15156;DHT22;7678;50.058;8.306;2022-10-17T14:47:48;22.50;99.90
15156;DHT22;7678;50.058;8.306;2022-10-17T14:50:21;22.40;99.90
15156;DHT22;7678;50.058;8.306;2022-10-17T14:53:00;22.40;99.90
15156;DHT22;7678;50.058;8.306;2022-10-17T14:55:30;22.50;99.90
15156;DHT22;7678;50.058;8.306;2022-10-17T14:57:58;22.50;99.90
15156;DHT22;7678;50.058;8.306;2022-10-17T15:00:27;22.50;99.90
15156;DHT22;7678;50.058;8.306;2022-10-17T15:02:55;22.60;99.90
15156;DHT22;7678;50.058;8.306;2022-10-17T15:05:23;22.50;99.90
15156;DHT22;7678;50.058;8.306;2022-10-17T15:07:52;22.50;99.90
15156;DHT22;7678;50.058;8.306;2022-10-17T15:10:29;22.20;99.90
15156;DHT22;7678;50.058;8.306;2022-10-17T15:12:58;22.10;99.90
15156;DHT22;7678;50.058;8.306;2022-10-17T15:15:48;21.90;99.90
15156;DHT22;7678;50.058;8.306;2022-10-17T15:18:18;21.90;99.90
15156;DHT22;7678;50.058;8.306;2022-10-17T15:20:46;21.70;99.90
15156;DHT22;7678;50.058;8.306;2022-10-17T15:23:30;21.60;99.90
15156;DHT22;7678;50.058;8.306;2022-10-17T15:25:58;21.50;99.90
15156;DHT22;7678;50.058;8.306;2022-10-17T15:28:26;21.60;99.90
15156;DHT22;7678;50.058;8.306;2022-10-17T15:30:55;21.60;99.90
15156;DHT22;7678;50.058;8.306;2022-10-17T15:33:23;21.50;99.90
15156;DHT22;7678;50.058;8.306;2022-10-17T15:35:51;21.40;99.90
15156;DHT22;7678;50.058;8.306;2022-10-17T15:38:19;21.20;99.90
15156;DHT22;7678;50.058;8.306;2022-10-17T15:40:47;21.10;99.90
15156;DHT22;7678;50.058;8.306;2022-10-17T15:43:17;21.10;99.90
15156;DHT22;7678;50.058;8.306;2022-10-17T15:45:45;21.10;99.90
15156;DHT22;7678;50.058;8.306;2022-10-17T15:48:18;21.00;99.90
15156;DHT22;7678;50.058;8.306;2022-10-17T15:50:47;20.80;99.90
15156;DHT22;7678;50.058;8.306;2022-10-17T15:53:15;20.70;99.90
15156;DHT22;7678;50.058;8.306;2022-10-17T15:55:42;20.50;99.90
15156;DHT22;7678;50.058;8.306;2022-10-17T15:58:13;20.40;99.90
15156;DHT22;7678;50.058;8.306;2022-10-17T16:00:42;20.20;99.90
15156;DHT22;7678;50.058;8.306;2022-10-17T16:03:10;20.10;99.90
15156;DHT22;7678;50.058;8.306;2022-10-17T16:05:39;20.00;99.90
15156;DHT22;7678;50.058;8.306;2022-10-17T16:08:07;19.80;99.90
15156;DHT22;7678;50.058;8.306;2022-10-17T16:10:38;19.70;99.90
15156;DHT22;7678;50.058;8.306;2022-10-17T16:13:13;19.50;99.90
15156;DHT22;7678;50.058;8.306;2022-10-17T16:15:43;19.40;99.90
15156;DHT22;7678;50.058;8.306;2022-10-17T16:18:12;19.30;99.90
15156;DHT22;7678;50.058;8.306;2022-10-17T16:20:41;19.10;99.90
15156;DHT22;7678;50.058;8.306;2022-10-17T16:23:11;19.10;99.90
15156;DHT22;7678;50.058;8.306;2022-10-17T16:25:39;19.00;99.90
15156;DHT22;7678;50.058;8.306;2022-10-17T16:28:08;19.00;99.90
15156;DHT22;7678;50.058;8.306;2022-10-17T16:30:41;18.90;99.90